Terminal Aerodrome Forecast
Issued by NWS

Home | Current Version | Previous Version | Text Only | Print | Product List | Glossary On
Versions: 1 2 3 4 5 6 7 8 9 10 11 12 13 14 15 16 17 18 19 20 21 22 23 24
000
FTUS43 KDLH 131700
TAFHYR
TAF
KHYR 131740Z 1318/1418 21007KT P6SM BKN050
     FM132300 19005KT P6SM SCT050
     FM140500 18007KT P6SM BKN050
     FM140900 17009KT 6SM BR FEW025 OVC040
     FM141500 21005KT P6SM SCT040 BKN100=

USA.gov is the U.S. government's official web portal to all federal, state and local government web resources and services.